Latest Coastal Weather Observations for Norah Head

IDN60701

Issued at 10:05 am EDT Saturday 29 November 2014 (issued every 10 minutes, with the page automatically refreshed every 10 minutes)

About coastal observations | Map of coastal stations | Coastal observations for NSW | Marine services | Other Formats
Station Details ID: 061366 Name: NORAH HEAD AWS Lat: -33.28 Lon: 151.58 Height: 18.8 m
Data from the previous 72 hours. | See also: Recent months at Norah Head
Date/Time
EDT
Temp

°C
Wind Pressure Rain
since 9am
mm
Weather Cloud Vis
km
Sea
Height
m
Swell
Dir
 
Speed
knots
Gust
knots
hPa Trend Height
m
Period
s
Dir
29/10:00am 24.6 ENE 7 8 1019.2 - 0.0 - - - - - - -
29/09:30am 24.7 NE 6 7 1019.2 - 0.0 - - - - - - -
29/09:00am 22.9 NNE 7 9 1019.3 - 0.0 - - - - - - -
29/08:30am 22.5 N 3 5 1019.5 - 0.0 - - - - - - -
29/08:00am 21.6 NNW 5 7 1019.3 - 0.0 - - - - - - -
29/07:30am 20.8 N 12 14 1018.9 - 0.0 - - - - - - -
29/07:00am 20.3 N 6 7 1019.1 - 0.0 - - - - - - -
29/06:30am 19.6 N 5 7 1019.0 - 0.0 - - - - - - -
29/06:00am 19.8 N 13 14 1018.9 - 0.0 - - - - - - -
29/05:30am 19.7 NNE 14 16 1018.6 - 0.0 - - - - - - -
29/05:00am 19.8 NNE 16 19 1018.3 - 0.0 - - - - - - -
29/04:30am 19.9 NNE 15 18 1018.4 - 0.0 - - - - - - -
29/04:00am 19.9 NNE 13 16 1018.3 - 0.0 - - - - - - -
29/03:30am 20.1 NNE 14 16 1018.5 - 0.0 - - - - - - -
29/03:00am 20.0 NNE 15 17 1018.6 - 0.0 - - - - - - -
29/02:30am 20.1 NNE 14 17 1018.8 - 0.0 - - - - - - -
29/02:00am 20.3 NNE 14 17 1018.9 - 0.0 - - - - - - -
29/01:30am 20.4 NNE 13 16 1019.4 - 0.0 - - - - - - -
29/01:00am 20.3 NE 10 13 1019.9 - 0.0 - - - - - - -
29/12:30am 20.4 NE 10 13 1020.0 - 0.0 - - - - - - -
29/12:00am 20.2 NE 12 14 1020.2 - 0.0 - - - - - - -
 
Date/Time
EDT
Temp

°C
Wind Pressure Rain
since 9am
mm
Weather Cloud Vis
km
Sea
Height
m
Swell
Dir
 
Speed
knots
Gust
knots
hPa Trend Height
m
Period
s
Dir
28/11:30pm 20.2 NE 13 15 1020.3 - 0.0 - - - - - - -
28/11:00pm 20.1 NE 12 14 1020.4 - 0.0 - - - - - - -
28/10:30pm 20.0 NE 11 13 1020.6 - 0.0 - - - - - - -
28/10:00pm 19.7 NE 12 14 1020.6 - 0.0 - - - - - - -
28/09:30pm 19.7 NE 13 15 1020.4 - 0.0 - - - - - - -
28/09:00pm 19.8 NE 14 17 1020.2 - 0.0 - - - - - - -
28/08:30pm 19.7 NE 13 16 1020.2 - 0.0 - - - - - - -
28/08:00pm 19.8 NE 13 15 1020.2 - 0.0 - - - - - - -
28/07:30pm 19.8 NE 12 14 1020.4 - 0.0 - - - - - - -
28/07:00pm 20.2 NE 13 16 1020.4 - 0.0 - - - - - - -
28/06:30pm 20.5 NE 12 15 1020.4 - 0.0 - - - - - - -
28/06:00pm 21.0 NE 11 14 1020.3 - 0.0 - - - - - - -
28/05:30pm 21.7 ENE 11 14 1020.3 - 0.0 - - - - - - -
28/05:00pm 21.5 NE 11 14 1020.5 - 0.0 - - - - - - -
28/04:30pm 22.5 ENE 10 13 1020.7 - 0.0 - - - - - - -
28/04:00pm 22.9 ENE 10 12 1021.0 - 0.0 - - - - - - -
28/03:30pm 22.9 ENE 10 13 1021.2 - 0.0 - - - - - - -
28/03:00pm 23.2 ENE 9 11 1021.4 - 0.0 - - - - - - -
28/02:30pm 22.4 E 8 10 1021.8 - 0.0 - - - - - - -
28/02:00pm 22.6 E 7 8 1022.1 - 0.0 - - - - - - -
28/01:30pm 22.7 E 7 8 1022.5 - 0.0 - - - - - - -
28/01:00pm 22.5 ESE 6 8 1023.0 - 0.0 - - - - - - -
28/12:30pm 22.3 E 5 7 1023.4 - 0.0 - - - - - - -
28/12:00pm 21.3 ESE 5 7 1023.6 - 0.0 - - - - - - -
28/11:30am 21.6 E 7 8 1023.7 - 0.0 - - - - - - -
28/11:00am 22.0 SE 6 8 1023.8 - 0.0 - - - - - - -
28/10:30am 21.8 SSE 8 9 1023.7 - 0.0 - - - - - - -
28/10:00am 21.6 SE 7 9 1023.7 - 0.0 - - - - - - -
28/09:30am 21.0 SE 8 9 1023.7 - 0.0 - - - - - - -
28/09:00am 20.1 SE 11 14 1023.4 - 0.0 - - - - - - -
28/08:30am 19.4 SE 9 12 1023.4 - 0.0 - - - - - - -
28/08:00am 19.2 SE 11 13 1023.1 - 0.0 - - - - - - -
28/07:30am 19.0 SE 11 14 1022.7 - 0.0 - - - - - - -
28/07:00am 19.0 SE 12 16 1022.3 - 0.0 - - - - - - -
28/06:30am 19.0 SE 13 15 1022.1 - 0.0 - - - - - - -
28/06:00am 18.9 SE 13 16 1021.9 - 0.0 - - - - - - -
28/05:30am 18.8 SE 14 18 1021.6 - 0.0 - - - - - - -
28/05:00am 18.8 SE 14 16 1021.7 - 0.0 - - - - - - -
28/04:30am 18.9 SSE 12 16 1021.5 - 0.0 - - - - - - -
28/04:00am 19.1 SSE 13 16 1021.5 - 0.0 - - - - - - -
28/03:30am 19.1 SE 11 13 1021.5 - 0.0 - - - - - - -
28/03:00am 19.0 SSE 11 14 1021.8 - 0.0 - - - - - - -
28/02:30am 19.2 SE 11 13 1021.9 - 0.0 - - - - - - -
28/02:00am 19.2 SE 11 15 1022.0 - 0.0 - - - - - - -
28/01:30am 19.0 SE 11 14 1022.4 - 0.0 - - - - - - -
28/01:00am 18.9 SE 13 15 1022.7 - 0.0 - - - - - - -
28/12:30am 19.1 SE 12 13 1023.0 - 0.0 - - - - - - -
28/12:00am 19.2 SE 11 14 1023.3 - 0.0 - - - - - - -
 
Date/Time
EDT
Temp

°C
Wind Pressure Rain
since 9am
mm
Weather Cloud Vis
km
Sea
Height
m
Swell
Dir
 
Speed
knots
Gust
knots
hPa Trend Height
m
Period
s
Dir
27/11:30pm 19.2 SE 12 15 1023.4 - 0.0 - - - - - - -
27/11:00pm 19.0 SE 14 16 1023.6 - 0.0 - - - - - - -
27/10:30pm 19.4 SE 13 16 1023.6 - 0.0 - - - - - - -
27/10:00pm 19.4 SE 14 17 1023.6 - 0.0 - - - - - - -
27/09:30pm 19.4 ESE 12 14 1023.6 - 0.0 - - - - - - -
27/09:00pm 19.4 SE 13 15 1023.4 - 0.0 - - - - - - -
27/08:30pm 19.4 SE 13 16 1023.2 - 0.0 - - - - - - -
27/08:00pm 19.3 SE 14 17 1022.9 - 0.0 - - - - - - -
27/07:30pm 19.4 SE 16 19 1022.6 - 0.0 - - - - - - -
27/07:00pm 19.6 SSE 16 19 1022.3 - 0.0 - - - - - - -
27/06:30pm 19.4 SE 17 20 1022.0 - 0.0 - - - - - - -
27/06:00pm 20.0 SSE 17 20 1021.6 - 0.0 - - - - - - -
27/05:30pm 20.2 SSE 16 20 1021.6 - 0.0 - - - - - - -
27/05:00pm 20.9 SSE 16 19 1021.5 - 0.0 - - - - - - -
27/04:30pm 20.6 SSE 18 21 1021.5 - 0.0 - - - - - - -
27/04:00pm 20.5 SSE 19 22 1021.6 - 0.0 - - - - - - -
27/03:30pm 20.5 SSE 20 23 1021.5 - 0.0 - - - - - - -
27/03:00pm 20.8 SSE 20 22 1021.5 - 0.0 - - - - - - -
27/02:30pm 21.2 SSE 18 22 1021.6 - 0.0 - - - - - - -
27/02:00pm 21.7 SSE 17 21 1021.5 - 0.0 - - - - - - -
27/01:30pm 22.6 SSE 18 20 1021.4 - 0.0 - - - - - - -
27/01:00pm 22.2 SSE 17 20 1021.4 - 0.0 - - - - - - -
27/12:30pm 22.6 SE 17 20 1021.5 - 0.0 - - - - - - -
27/12:00pm 22.6 SSE 19 23 1021.2 - 0.0 - - - - - - -
27/11:30am 21.5 SE 19 22 1021.2 - 0.0 - - - - - - -
27/11:00am 21.8 SE 20 23 1021.2 - 0.0 - - - - - - -
27/10:30am 22.3 SE 21 24 1020.9 - 0.0 - - - - - - -
27/10:00am 21.7 SSE 22 25 1020.9 - 0.0 - - - - - - -
27/09:30am 22.0 SE 22 25 1020.8 - 0.0 - - - - - - -
27/09:00am 20.6 SE 20 22 1020.8 - 0.0 - - - - - - -
27/08:30am 20.7 SSE 22 24 1020.4 - 0.0 - - - - - - -
27/08:00am 20.3 SSE 22 26 1020.1 - 0.0 - - - - - - -
27/07:30am 20.0 SSE 21 24 1019.8 - 0.0 - - - - - - -
27/07:00am 19.9 SSE 23 27 1019.2 - 0.0 - - - - - - -
27/06:30am 19.7 SSE 22 26 1018.8 - 0.0 - - - - - - -
27/06:00am 20.5 SSE 18 20 1018.1 - 0.0 - - - - - - -
27/05:30am 20.6 SSE 16 18 1018.0 - 0.0 - - - - - - -
27/05:00am 20.6 SSE 15 17 1017.5 - 0.0 - - - - - - -
27/04:30am 20.5 SSE 16 18 1017.4 - 0.0 - - - - - - -
27/04:00am 20.5 SSE 14 16 1017.1 - 0.0 - - - - - - -
27/03:30am 20.6 SSE 14 16 1016.9 - 0.0 - - - - - - -
27/03:00am 20.6 SE 13 16 1016.9 - 0.0 - - - - - - -
27/02:30am 20.8 SE 12 14 1017.1 - 0.0 - - - - - - -
27/02:00am 20.6 SE 11 13 1017.3 - 0.0 - - - - - - -
27/01:30am 20.7 SE 10 12 1017.5 - 0.0 - - - - - - -
27/01:00am 20.9 ESE 10 12 1017.7 - 0.0 - - - - - - -
27/12:30am 20.9 ESE 10 12 1017.9 - 0.0 - - - - - - -
27/12:00am 20.8 ESE 9 11 1018.1 - 0.0 - - - - - - -
 
Date/Time
EDT
Temp

°C
Wind Pressure Rain
since 9am
mm
Weather Cloud Vis
km
Sea
Height
m
Swell
Dir
 
Speed
knots
Gust
knots
hPa Trend Height
m
Period
s
Dir
26/11:30pm 21.1 ESE 8 11 1018.1 - 0.0 - - - - - - -
26/11:00pm 21.3 ESE 9 10 1018.0 - 0.0 - - - - - - -
26/10:30pm 21.3 E 9 11 1017.9 - 0.0 - - - - - - -
26/10:00pm 21.1 ENE 11 13 1017.6 - 0.0 - - - - - - -
26/09:30pm 20.8 ENE 13 15 1017.3 - 0.0 - - - - - - -
26/09:00pm 20.8 NE 13 16 1016.8 - 0.0 - - - - - - -
26/08:30pm 20.9 NE 15 18 1016.7 - 0.0 - - - - - - -
26/08:00pm 20.8 NE 17 19 1016.3 - 0.0 - - - - - - -
26/07:30pm 20.9 NE 17 21 1016.0 - 0.0 - - - - - - -
26/07:00pm 21.3 NE 16 19 1016.0 - 0.0 - - - - - - -
26/06:30pm 21.5 NE 16 19 1015.7 - 0.0 - - - - - - -
26/06:00pm 21.6 NE 15 20 1015.4 - 0.0 - - - - - - -
26/05:30pm 21.3 NE 18 21 1015.2 - 0.0 - - - - - - -
26/05:00pm 21.8 NE 18 23 1015.4 - 0.0 - - - - - - -
26/04:30pm 22.5 NE 17 20 1015.3 - 0.0 - - - - - - -
26/04:00pm 22.3 NE 16 19 1015.6 - 0.0 - - - - - - -
26/03:30pm 22.7 NE 13 16 1016.2 - 0.0 - - - - - - -
26/03:00pm 21.8 NE 10 11 1016.9 - 0.0 - - - - - - -
26/02:30pm 21.7 NE 13 14 1016.8 - 0.0 - - - - - - -
26/02:00pm 21.6 NE 12 14 1017.1 - 0.0 - - - - - - -
26/01:30pm 21.7 NE 12 14 1017.4 - 0.0 - - - - - - -
26/01:00pm 21.9 NE 10 13 1017.6 - 0.0 - - - - - - -
26/12:30pm 21.6 E 11 13 1018.1 - 0.0 - - - - - - -
26/12:00pm 21.6 E 11 13 1018.3 - 0.0 - - - - - - -
26/11:30am 21.7 E 12 14 1018.8 - 0.0 - - - - - - -
26/11:00am 22.1 E 12 14 1019.0 - 0.0 - - - - - - -
26/10:30am 21.8 E 11 12 1019.1 - 0.0 - - - - - - -

Other Formats:

Comma delimited format used in spreadsheet applications
http://www.bom.gov.au/fwo/IDN60701/IDN60701.95770.axf

JavaScript Object Notation format (JSON) in row-major order
http://www.bom.gov.au/fwo/IDN60701/IDN60701.95770.json